createdAt,value
2023-04-06T00:01:44.275Z,3.14
2023-04-06T00:04:11.596Z,3.13
2023-04-06T00:06:38.764Z,3.08
2023-04-06T00:09:06.357Z,3.27
2023-04-06T00:11:33.744Z,3.36
2023-04-06T00:14:01.434Z,3.30
2023-04-06T00:16:30.594Z,3.34
2023-04-06T00:18:57.897Z,3.27
2023-04-06T00:21:25.116Z,3.39
2023-04-06T00:23:52.238Z,3.32
2023-04-06T00:26:19.387Z,3.13
2023-04-06T00:28:48.049Z,3.41
2023-04-06T00:31:15.700Z,3.42
2023-04-06T00:33:42.900Z,3.36
2023-04-06T00:36:10.199Z,3.26
2023-04-06T00:38:37.447Z,3.33
2023-04-06T00:41:05.723Z,3.40
2023-04-06T00:43:33.369Z,3.59
2023-04-06T00:46:00.899Z,3.44
2023-04-06T00:48:28.295Z,3.43
2023-04-06T00:50:55.681Z,3.43
2023-04-06T00:53:23.075Z,3.48
2023-04-06T00:55:51.445Z,3.32
2023-04-06T00:58:18.816Z,3.40
2023-04-06T01:00:52.049Z,3.34
2023-04-06T01:03:22.420Z,3.53
2023-04-06T01:05:49.856Z,3.56
2023-04-06T01:08:23.625Z,3.57
2023-04-06T01:10:54.677Z,3.40
2023-04-06T01:13:26.992Z,3.43
2023-04-06T01:15:57.064Z,3.37
2023-04-06T01:18:33.545Z,3.46
2023-04-06T01:21:17.023Z,3.42
2023-04-06T01:24:02.470Z,3.55
2023-04-06T01:26:39.696Z,3.45
2023-04-06T01:29:09.932Z,3.48
2023-04-06T01:31:37.305Z,3.56
2023-04-06T01:34:05.962Z,3.67
2023-04-06T01:36:34.120Z,3.74
2023-04-06T01:39:20.748Z,3.78
2023-04-06T01:41:51.158Z,3.74
2023-04-06T01:44:20.683Z,3.80
2023-04-06T01:46:54.424Z,3.78
2023-04-06T01:49:21.870Z,3.75
2023-04-06T01:51:55.403Z,3.68
2023-04-06T01:54:22.971Z,3.86
2023-04-06T01:56:56.288Z,3.76
2023-04-06T01:59:42.503Z,3.83
2023-04-06T02:02:20.775Z,3.91
2023-04-06T02:04:57.797Z,3.85
2023-04-06T02:07:25.393Z,3.84
2023-04-06T02:09:56.403Z,3.63
2023-04-06T02:12:29.449Z,3.82
2023-04-06T02:14:56.778Z,3.85
2023-04-06T02:17:24.189Z,3.94
2023-04-06T02:19:51.969Z,3.82
2023-04-06T02:22:19.312Z,3.92
2023-04-06T02:24:47.790Z,3.95
2023-04-06T02:27:16.127Z,3.80
2023-04-06T02:29:47.658Z,3.72
2023-04-06T02:32:18.572Z,3.94
2023-04-06T02:34:46.399Z,3.78
2023-04-06T02:37:14.023Z,3.91
2023-04-06T02:39:41.403Z,3.93
2023-04-06T02:42:09.997Z,3.94
2023-04-06T02:44:37.372Z,3.92
2023-04-06T02:47:04.620Z,3.94
2023-04-06T02:49:32.012Z,3.89
2023-04-06T02:52:01.265Z,4.00
2023-04-06T02:54:32.739Z,3.76
2023-04-06T02:57:00.974Z,4.01
2023-04-06T02:59:37.049Z,4.00
2023-04-06T03:02:27.038Z,4.05
2023-04-06T03:05:04.437Z,4.12
2023-04-06T03:07:36.294Z,4.03
2023-04-06T03:10:03.847Z,3.95
2023-04-06T03:12:32.842Z,4.15
2023-04-06T03:15:26.413Z,4.16
2023-04-06T03:18:02.357Z,4.03
2023-04-06T03:20:37.829Z,4.08
2023-04-06T03:23:05.256Z,4.09
2023-04-06T03:25:36.825Z,4.21
2023-04-06T03:28:06.853Z,3.87
2023-04-06T03:30:38.972Z,4.14
2023-04-06T03:33:06.652Z,3.94
2023-04-06T03:35:39.733Z,4.15
2023-04-06T03:38:08.534Z,4.16
2023-04-06T03:40:36.171Z,4.01
2023-04-06T03:43:03.644Z,4.00
2023-04-06T03:45:33.592Z,3.85
2023-04-06T03:48:00.885Z,4.05
2023-04-06T03:50:28.546Z,4.19
2023-04-06T03:52:55.688Z,4.03
2023-04-06T03:55:22.902Z,4.02
2023-04-06T03:57:50.078Z,4.11
2023-04-06T04:00:18.920Z,4.12
2023-04-06T04:02:46.141Z,4.02
2023-04-06T04:05:13.443Z,4.19
2023-04-06T04:07:40.777Z,4.13
2023-04-06T04:10:10.764Z,4.10
2023-04-06T04:12:37.963Z,4.19
2023-04-06T04:15:05.816Z,3.76
2023-04-06T04:17:32.913Z,4.18
2023-04-06T04:20:00.097Z,4.05
2023-04-06T04:22:28.987Z,4.15
2023-04-06T04:24:56.252Z,4.19
2023-04-06T04:27:23.850Z,4.19
2023-04-06T04:29:53.214Z,4.01
2023-04-06T04:32:21.038Z,4.08
2023-04-06T04:34:48.321Z,4.18
2023-04-06T04:37:26.073Z,4.08
2023-04-06T04:39:56.622Z,4.19
2023-04-06T04:42:23.996Z,4.25
2023-04-06T04:44:54.021Z,4.14
2023-04-06T04:47:33.083Z,4.17
2023-04-06T04:50:00.843Z,4.25
2023-04-06T04:52:28.149Z,4.20
2023-04-06T04:55:01.304Z,4.20
2023-04-06T04:57:29.880Z,4.33
2023-04-06T04:59:58.260Z,4.39
2023-04-06T05:02:25.634Z,4.35
2023-04-06T05:05:15.818Z,4.33
2023-04-06T05:07:43.397Z,4.24
2023-04-06T05:10:17.540Z,4.17
2023-04-06T05:12:53.707Z,4.37
2023-04-06T05:15:21.312Z,4.31
2023-04-06T05:17:52.120Z,4.50
2023-04-06T05:20:24.198Z,4.30
2023-04-06T05:22:52.292Z,4.56
2023-04-06T05:25:19.572Z,4.70
2023-04-06T05:27:50.340Z,4.69
2023-04-06T05:30:44.344Z,4.75
2023-04-06T05:33:13.411Z,4.59
2023-04-06T05:35:58.989Z,4.82
2023-04-06T05:38:26.207Z,4.84
2023-04-06T05:40:55.241Z,4.75
2023-04-06T05:43:25.993Z,4.86
2023-04-06T05:45:56.261Z,4.91
2023-04-06T05:48:23.446Z,5.08
2023-04-06T05:51:01.165Z,5.10
2023-04-06T05:53:38.331Z,5.01
2023-04-06T05:56:06.286Z,4.94
2023-04-06T05:58:33.729Z,5.03
2023-04-06T06:01:02.611Z,5.10
2023-04-06T06:03:37.785Z,4.76
2023-04-06T06:06:05.884Z,5.08
2023-04-06T06:08:49.985Z,5.10
2023-04-06T06:11:18.665Z,5.36
2023-04-06T06:13:46.261Z,5.05
2023-04-06T06:16:13.508Z,5.03
2023-04-06T06:18:45.436Z,5.41
2023-04-06T06:21:13.477Z,5.41
2023-04-06T06:23:43.543Z,5.46
2023-04-06T06:26:14.876Z,5.51
2023-04-06T06:28:42.269Z,5.40
2023-04-06T06:31:12.020Z,5.39
2023-04-06T06:33:39.432Z,5.61
2023-04-06T06:36:06.914Z,5.61
2023-04-06T06:38:34.448Z,5.51
2023-04-06T06:41:01.735Z,5.78
2023-04-06T06:43:32.072Z,5.90
2023-04-06T06:46:02.849Z,5.70
2023-04-06T06:48:30.124Z,5.95
2023-04-06T06:50:58.023Z,5.84
2023-04-06T06:53:25.965Z,6.23
2023-04-06T06:55:53.314Z,6.17
2023-04-06T06:58:21.459Z,6.09
2023-04-06T07:00:49.481Z,6.10
2023-04-06T07:03:17.218Z,6.00
2023-04-06T07:05:54.400Z,6.15
2023-04-06T07:08:24.604Z,6.06
2023-04-06T07:10:57.538Z,6.13
2023-04-06T07:13:25.246Z,6.11
2023-04-06T07:15:56.058Z,5.77
2023-04-06T07:18:23.757Z,6.29
2023-04-06T07:20:51.440Z,6.37
2023-04-06T07:23:19.208Z,6.56
2023-04-06T07:25:46.715Z,6.56
2023-04-06T07:28:14.081Z,6.79
2023-04-06T07:30:41.987Z,6.93
2023-04-06T07:33:11.261Z,7.11
2023-04-06T07:35:39.038Z,7.42
2023-04-06T07:38:07.085Z,7.63
2023-04-06T07:40:35.526Z,7.76
2023-04-06T07:43:03.743Z,8.00
2023-04-06T07:45:32.074Z,7.85
2023-04-06T07:48:00.996Z,8.39
2023-04-06T07:50:29.019Z,8.21
2023-04-06T07:52:57.120Z,8.31
2023-04-06T07:55:24.570Z,8.46
2023-04-06T07:57:52.028Z,8.56
2023-04-06T08:00:19.517Z,8.45
2023-04-06T08:02:46.759Z,8.54
2023-04-06T08:05:14.223Z,8.35
2023-04-06T08:07:42.765Z,8.29
2023-04-06T08:10:10.565Z,8.58
2023-04-06T08:12:37.905Z,8.68
2023-04-06T08:15:05.772Z,8.55
2023-04-06T08:17:35.135Z,8.60
2023-04-06T08:20:04.619Z,8.42
2023-04-06T08:22:32.128Z,8.79
2023-04-06T08:24:59.370Z,8.68
2023-04-06T08:27:27.285Z,8.79
2023-04-06T08:29:54.526Z,8.51
2023-04-06T08:32:21.910Z,9.06
2023-04-06T08:34:49.122Z,9.12
2023-04-06T08:37:16.444Z,8.93
2023-04-06T08:39:43.700Z,9.08
2023-04-06T08:42:22.359Z,9.09
2023-04-06T08:44:53.600Z,9.03
2023-04-06T08:47:23.985Z,9.06
2023-04-06T08:49:53.868Z,9.00
2023-04-06T08:52:21.595Z,9.31
2023-04-06T08:54:48.873Z,9.26
2023-04-06T08:57:17.940Z,9.50
2023-04-06T08:59:45.613Z,9.00
2023-04-06T09:02:18.715Z,9.35
2023-04-06T09:04:49.912Z,9.19
2023-04-06T09:07:17.729Z,9.05
2023-04-06T09:09:48.979Z,9.11
2023-04-06T09:12:27.738Z,9.24
2023-04-06T09:14:56.952Z,9.28
2023-04-06T09:17:26.333Z,9.39
2023-04-06T09:19:54.566Z,9.17
2023-04-06T09:22:21.762Z,9.35
2023-04-06T09:24:51.668Z,9.42
2023-04-06T09:27:19.901Z,9.29
2023-04-06T09:29:47.136Z,9.49
2023-04-06T09:32:17.991Z,9.18
2023-04-06T09:34:50.902Z,9.41
2023-04-06T09:37:20.239Z,9.41
2023-04-06T09:39:47.765Z,9.58
2023-04-06T09:42:27.519Z,9.42
2023-04-06T09:44:55.634Z,9.49
2023-04-06T09:47:29.564Z,9.50
2023-04-06T09:49:59.290Z,9.69
2023-04-06T09:52:32.733Z,9.86
2023-04-06T09:55:06.571Z,9.60
2023-04-06T09:57:43.096Z,9.54
2023-04-06T10:00:15.646Z,9.72
2023-04-06T10:02:57.776Z,9.57
2023-04-06T10:05:34.072Z,9.77
2023-04-06T10:08:07.291Z,9.44
2023-04-06T10:10:34.760Z,9.45
2023-04-06T10:13:02.098Z,9.60
2023-04-06T10:15:31.150Z,9.73
2023-04-06T10:18:02.267Z,9.73
2023-04-06T10:20:41.788Z,9.98
2023-04-06T10:23:24.006Z,9.92
2023-04-06T10:25:55.970Z,9.91
2023-04-06T10:28:24.236Z,9.83
2023-04-06T10:30:58.449Z,10.01
2023-04-06T10:33:25.920Z,9.74
2023-04-06T10:35:53.454Z,10.13
2023-04-06T10:38:25.414Z,10.12
2023-04-06T10:40:52.600Z,9.82
2023-04-06T10:43:22.219Z,10.00
2023-04-06T10:45:57.920Z,10.06
2023-04-06T10:48:25.402Z,10.20
2023-04-06T10:50:53.831Z,10.14
2023-04-06T10:53:27.943Z,10.24
2023-04-06T10:55:58.362Z,10.19
2023-04-06T10:58:26.777Z,10.46
2023-04-06T11:00:55.605Z,10.66
2023-04-06T11:03:23.239Z,10.66
2023-04-06T11:05:52.522Z,10.10
2023-04-06T11:08:40.546Z,9.95
2023-04-06T11:11:10.401Z,10.04
2023-04-06T11:13:48.198Z,10.22
2023-04-06T11:16:18.525Z,10.04
2023-04-06T11:18:57.263Z,10.06
2023-04-06T11:21:34.231Z,10.29
2023-04-06T11:24:16.604Z,10.32
2023-04-06T11:26:52.411Z,10.13
2023-04-06T11:29:22.046Z,10.36
2023-04-06T11:32:02.550Z,10.45
2023-04-06T11:34:31.359Z,10.36
2023-04-06T11:37:01.613Z,10.52
2023-04-06T11:39:30.642Z,10.43
2023-04-06T11:42:08.445Z,10.36
2023-04-06T11:44:41.083Z,10.86
2023-04-06T11:47:09.999Z,10.52
2023-04-06T11:49:42.302Z,10.20
2023-04-06T11:52:25.395Z,10.09
2023-04-06T11:54:54.494Z,10.03
2023-04-06T11:57:25.599Z,10.38
2023-04-06T11:59:53.590Z,10.32
2023-04-06T12:02:21.257Z,10.65
2023-04-06T12:04:48.767Z,10.53
2023-04-06T12:07:16.265Z,10.71
2023-04-06T12:09:44.442Z,10.63
2023-04-06T12:12:11.819Z,10.71
2023-04-06T12:14:39.128Z,10.68
2023-04-06T12:17:06.352Z,10.73
2023-04-06T12:19:33.653Z,10.32
2023-04-06T12:22:00.906Z,9.97
2023-04-06T12:24:29.773Z,10.40
2023-04-06T12:27:08.595Z,10.33
2023-04-06T12:29:37.116Z,10.36
2023-04-06T12:32:04.346Z,10.41
2023-04-06T12:34:31.562Z,10.58
2023-04-06T12:36:59.022Z,10.43
2023-04-06T12:39:27.886Z,10.41
2023-04-06T12:41:55.170Z,10.55
2023-04-06T12:44:23.622Z,10.26
2023-04-06T12:46:52.313Z,10.34
2023-04-06T12:49:20.301Z,9.98
2023-04-06T12:51:47.479Z,10.05
2023-04-06T12:54:14.687Z,9.63
2023-04-06T12:56:42.374Z,9.88
2023-04-06T12:59:09.784Z,10.01
2023-04-06T13:01:37.074Z,10.34
2023-04-06T13:04:04.316Z,10.17
2023-04-06T13:06:31.812Z,9.98
2023-04-06T13:08:59.061Z,9.97
2023-04-06T13:11:28.753Z,10.22
2023-04-06T13:13:56.389Z,10.42
2023-04-06T13:16:23.776Z,10.11
2023-04-06T13:18:51.365Z,10.35
2023-04-06T13:21:21.895Z,10.44
2023-04-06T13:23:49.241Z,10.12
2023-04-06T13:26:17.847Z,10.21
2023-04-06T13:28:45.148Z,10.18
2023-04-06T13:31:12.568Z,10.17
2023-04-06T13:33:41.939Z,10.19
2023-04-06T13:36:09.302Z,10.23
2023-04-06T13:38:36.965Z,10.21
2023-04-06T13:41:04.177Z,10.21
2023-04-06T13:43:31.552Z,10.22
2023-04-06T13:46:01.054Z,10.39
2023-04-06T13:48:28.349Z,10.38
2023-04-06T13:50:55.464Z,10.18
2023-04-06T13:53:22.603Z,10.60
2023-04-06T13:55:56.727Z,10.43
2023-04-06T13:58:24.341Z,9.79
2023-04-06T14:00:52.064Z,10.00
2023-04-06T14:03:20.383Z,10.04
2023-04-06T14:05:47.753Z,9.70
2023-04-06T14:08:15.073Z,10.26
2023-04-06T14:10:45.923Z,10.34
2023-04-06T14:13:13.090Z,10.15
2023-04-06T14:15:40.476Z,9.70
2023-04-06T14:18:07.798Z,9.85
2023-04-06T14:20:34.991Z,9.70
2023-04-06T14:23:03.209Z,9.93
2023-04-06T14:25:33.178Z,9.80
2023-04-06T14:28:00.852Z,9.63
2023-04-06T14:30:29.970Z,9.62
2023-04-06T14:33:00.860Z,9.35
2023-04-06T14:35:29.448Z,9.37
2023-04-06T14:37:59.232Z,9.44
2023-04-06T14:40:26.475Z,9.22
2023-04-06T14:42:53.669Z,9.57
2023-04-06T14:45:22.808Z,9.49
2023-04-06T14:47:50.393Z,9.32
2023-04-06T14:50:17.562Z,9.46
2023-04-06T14:52:44.694Z,9.29
2023-04-06T14:55:11.853Z,9.39
2023-04-06T14:57:39.495Z,9.17
2023-04-06T15:00:09.093Z,9.39
2023-04-06T15:02:36.501Z,9.31
2023-04-06T15:05:04.589Z,8.88
2023-04-06T15:07:31.760Z,9.22
2023-04-06T15:09:58.939Z,9.14
2023-04-06T15:12:26.094Z,9.10
2023-04-06T15:14:53.269Z,9.02
2023-04-06T15:17:20.624Z,8.98
2023-04-06T15:19:47.941Z,8.99
2023-04-06T15:22:15.123Z,8.92
2023-04-06T15:24:42.220Z,8.48
2023-04-06T15:27:09.421Z,8.59
2023-04-06T15:29:36.627Z,8.78
2023-04-06T15:32:04.904Z,8.77
2023-04-06T15:34:33.651Z,8.76
2023-04-06T15:37:05.076Z,9.05
2023-04-06T15:39:33.345Z,9.03
2023-04-06T15:42:01.209Z,8.86
2023-04-06T15:44:28.590Z,8.70
2023-04-06T15:46:55.917Z,8.52
2023-04-06T15:49:23.123Z,8.65
2023-04-06T15:51:51.842Z,8.48
2023-04-06T15:54:20.201Z,8.27
2023-04-06T15:56:48.563Z,8.59
2023-04-06T15:59:16.813Z,8.45
2023-04-06T16:01:46.416Z,8.54
2023-04-06T16:04:15.041Z,8.34
2023-04-06T16:06:42.454Z,8.47
2023-04-06T16:09:09.593Z,8.34
2023-04-06T16:11:37.145Z,8.39
2023-04-06T16:14:05.343Z,8.35
2023-04-06T16:16:32.755Z,8.31
2023-04-06T16:19:00.644Z,8.25
2023-04-06T16:21:28.824Z,8.26
2023-04-06T16:23:58.504Z,8.30
2023-04-06T16:26:27.692Z,8.06
2023-04-06T16:28:54.844Z,8.11
2023-04-06T16:31:24.299Z,8.08
2023-04-06T16:33:57.051Z,8.14
2023-04-06T16:36:24.776Z,8.04
2023-04-06T16:38:52.244Z,8.03
2023-04-06T16:41:19.841Z,7.78
2023-04-06T16:43:47.738Z,7.73
2023-04-06T16:46:15.717Z,7.74
2023-04-06T16:49:02.930Z,7.67
2023-04-06T16:51:32.346Z,7.58
2023-04-06T16:54:00.231Z,7.45
2023-04-06T16:56:27.690Z,7.53
2023-04-06T16:58:54.801Z,7.42
2023-04-06T17:01:27.775Z,7.42
2023-04-06T17:03:56.707Z,7.19
2023-04-06T17:06:24.123Z,7.39
2023-04-06T17:08:51.830Z,7.22
2023-04-06T17:11:21.935Z,7.26
2023-04-06T17:13:55.565Z,6.95
2023-04-06T17:16:22.751Z,7.23
2023-04-06T17:18:49.970Z,7.17
2023-04-06T17:21:17.317Z,7.14
2023-04-06T17:23:44.609Z,7.13
2023-04-06T17:26:12.292Z,7.12
2023-04-06T17:28:39.535Z,6.98
2023-04-06T17:31:11.937Z,7.10
2023-04-06T17:33:40.387Z,7.04
2023-04-06T17:36:10.930Z,7.02
2023-04-06T17:38:43.455Z,6.91
2023-04-06T17:41:12.463Z,6.73
2023-04-06T17:43:40.097Z,6.83
2023-04-06T17:46:07.432Z,6.79
2023-04-06T17:48:34.587Z,6.78
2023-04-06T17:51:02.021Z,6.81
2023-04-06T17:53:34.427Z,6.70
2023-04-06T17:56:05.150Z,6.71
2023-04-06T17:58:32.517Z,6.72
2023-04-06T18:01:02.542Z,6.67
2023-04-06T18:03:29.890Z,6.66
2023-04-06T18:05:57.851Z,6.66
2023-04-06T18:08:25.066Z,6.64
2023-04-06T18:10:52.568Z,6.60
2023-04-06T18:13:20.213Z,6.64
2023-04-06T18:15:47.387Z,6.49
2023-04-06T18:18:14.549Z,6.50
2023-04-06T18:20:41.855Z,6.54
2023-04-06T18:23:09.280Z,6.57
2023-04-06T18:25:40.606Z,6.50
2023-04-06T18:28:09.864Z,6.23
2023-04-06T18:30:37.358Z,6.35
2023-04-06T18:33:04.836Z,5.97
2023-04-06T18:35:32.222Z,6.39
2023-04-06T18:37:59.337Z,6.23
2023-04-06T18:40:39.914Z,6.26
2023-04-06T18:43:08.540Z,6.14
2023-04-06T18:45:38.824Z,6.23
2023-04-06T18:48:06.608Z,6.19
2023-04-06T18:50:33.733Z,6.13
2023-04-06T18:53:01.205Z,6.15
2023-04-06T18:55:28.827Z,6.02
2023-04-06T18:57:56.061Z,6.04
2023-04-06T19:00:23.273Z,5.98
2023-04-06T19:02:51.314Z,5.98
2023-04-06T19:05:19.067Z,6.07
2023-04-06T19:07:52.730Z,6.13
2023-04-06T19:10:20.169Z,5.86
2023-04-06T19:12:48.133Z,6.17
2023-04-06T19:15:15.744Z,6.11
2023-04-06T19:17:43.161Z,6.04
2023-04-06T19:20:11.090Z,6.06
2023-04-06T19:22:39.165Z,6.01
2023-04-06T19:25:07.882Z,5.68
2023-04-06T19:27:35.181Z,5.88
2023-04-06T19:30:02.715Z,5.72
2023-04-06T19:32:30.919Z,5.82
2023-04-06T19:34:59.710Z,6.03
2023-04-06T19:37:27.189Z,5.97
2023-04-06T19:39:54.427Z,5.69
2023-04-06T19:42:21.950Z,5.93
2023-04-06T19:44:49.172Z,5.61
2023-04-06T19:47:16.760Z,5.04
2023-04-06T19:49:44.132Z,5.27
2023-04-06T19:52:11.856Z,5.58
2023-04-06T19:54:39.837Z,5.61
2023-04-06T19:57:07.141Z,5.23
2023-04-06T19:59:34.539Z,4.90
2023-04-06T20:02:02.260Z,5.36
2023-04-06T20:04:29.505Z,5.16
2023-04-06T20:06:56.832Z,5.49
2023-04-06T20:09:24.629Z,5.54
2023-04-06T20:11:54.078Z,5.39
2023-04-06T20:14:22.439Z,5.41
2023-04-06T20:16:50.960Z,5.46
2023-04-06T20:19:18.544Z,5.47
2023-04-06T20:21:46.838Z,5.06
2023-04-06T20:24:14.530Z,5.38
2023-04-06T20:26:42.155Z,5.01
2023-04-06T20:29:09.376Z,5.29
2023-04-06T20:31:36.832Z,5.36
2023-04-06T20:34:04.475Z,5.21
2023-04-06T20:36:33.942Z,5.18
2023-04-06T20:39:01.375Z,5.30
2023-04-06T20:41:28.797Z,5.38
2023-04-06T20:43:55.988Z,5.33
2023-04-06T20:46:23.294Z,5.44
2023-04-06T20:48:52.808Z,5.45
2023-04-06T20:51:23.264Z,5.38
2023-04-06T20:53:50.529Z,5.35
2023-04-06T20:56:17.740Z,4.99
2023-04-06T20:58:44.952Z,5.43
2023-04-06T21:01:16.722Z,5.26
2023-04-06T21:03:45.250Z,5.29
2023-04-06T21:06:12.768Z,5.20
2023-04-06T21:08:39.889Z,5.22
2023-04-06T21:11:07.346Z,5.22
2023-04-06T21:13:35.827Z,5.16
2023-04-06T21:16:03.671Z,5.27
2023-04-06T21:18:34.584Z,5.35
2023-04-06T21:21:01.903Z,5.38
2023-04-06T21:23:29.104Z,5.32
2023-04-06T21:25:57.424Z,5.46
2023-04-06T21:28:25.657Z,5.38
2023-04-06T21:30:56.656Z,5.56
2023-04-06T21:33:23.865Z,5.34
2023-04-06T21:35:51.146Z,5.35
2023-04-06T21:38:18.376Z,5.47
2023-04-06T21:40:45.624Z,5.54
2023-04-06T21:43:12.819Z,5.28
2023-04-06T21:45:40.367Z,5.42
2023-04-06T21:48:07.857Z,5.58
2023-04-06T21:50:39.946Z,5.51
2023-04-06T21:53:07.121Z,5.49
2023-04-06T21:55:34.223Z,5.60
2023-04-06T21:58:01.581Z,5.53
2023-04-06T22:00:28.695Z,5.42
2023-04-06T22:02:56.067Z,5.35
2023-04-06T22:05:23.371Z,5.46
2023-04-06T22:07:50.737Z,5.54
2023-04-06T22:10:18.092Z,5.59
2023-04-06T22:12:45.482Z,5.45
2023-04-06T22:15:13.206Z,5.58
2023-04-06T22:17:40.558Z,5.41
2023-04-06T22:20:08.022Z,5.43
2023-04-06T22:22:35.631Z,5.25
2023-04-06T22:25:04.170Z,5.71
2023-04-06T22:27:31.274Z,5.62
2023-04-06T22:29:58.419Z,5.39
2023-04-06T22:32:25.814Z,5.57
2023-04-06T22:34:53.053Z,5.48
2023-04-06T22:37:20.211Z,5.67
2023-04-06T22:39:47.399Z,5.77
2023-04-06T22:42:14.553Z,5.72
2023-04-06T22:44:41.655Z,5.47
2023-04-06T22:47:08.797Z,5.97
2023-04-06T22:49:36.109Z,6.02
2023-04-06T22:52:03.229Z,5.73
2023-04-06T22:54:30.600Z,5.62
2023-04-06T22:56:57.794Z,5.70
2023-04-06T22:59:24.982Z,5.78
2023-04-06T23:01:52.206Z,5.61
2023-04-06T23:04:19.517Z,5.74
2023-04-06T23:06:46.668Z,5.82
2023-04-06T23:09:13.686Z,5.59
2023-04-06T23:11:40.936Z,5.71
2023-04-06T23:14:08.130Z,5.40
2023-04-06T23:16:35.390Z,5.77
2023-04-06T23:19:02.575Z,5.78
2023-04-06T23:21:31.025Z,5.33
2023-04-06T23:23:59.510Z,5.67
2023-04-06T23:26:27.254Z,5.83
2023-04-06T23:28:55.085Z,5.81
2023-04-06T23:31:22.223Z,5.80
2023-04-06T23:33:49.419Z,5.66
2023-04-06T23:36:16.774Z,5.54
2023-04-06T23:38:43.914Z,5.78
2023-04-06T23:41:14.595Z,5.65
2023-04-06T23:43:41.939Z,5.70
2023-04-06T23:46:09.349Z,5.26
2023-04-06T23:48:36.822Z,5.62
2023-04-06T23:51:04.131Z,5.24
2023-04-06T23:53:31.316Z,5.21
2023-04-06T23:55:58.522Z,5.19
2023-04-06T23:58:25.599Z,5.03
